createdAt,value
2017-04-10T12:32:47.462Z,235
2017-04-10T12:33:56.690Z,270
2017-04-10T12:35:05.600Z,250
2017-04-10T12:36:14.493Z,185
2017-04-10T12:37:23.724Z,175
2017-04-10T12:38:32.412Z,180
2017-04-10T12:39:41.661Z,215
2017-04-10T12:40:50.576Z,280
2017-04-10T12:42:00.059Z,310
2017-04-10T12:43:09.284Z,335
2017-04-10T12:44:17.876Z,335
2017-04-10T12:45:27.028Z,320
2017-04-10T12:46:35.669Z,280
2017-04-10T12:47:44.596Z,250
2017-04-10T12:48:53.909Z,240
2017-04-10T12:50:02.762Z,335
2017-04-10T12:51:12.525Z,350
2017-04-10T12:52:21.109Z,365
2017-04-10T12:53:30.342Z,355
2017-04-10T12:54:39.258Z,335
2017-04-10T12:55:48.383Z,295
2017-04-10T12:56:57.299Z,275
2017-04-10T12:58:07.031Z,265
2017-04-10T12:59:16.085Z,260
2017-04-10T13:00:24.706Z,325
2017-04-10T13:01:33.669Z,335
2017-04-10T13:02:42.666Z,410
2017-04-10T13:03:52.170Z,410
2017-04-10T13:05:01.436Z,405
2017-04-10T13:06:10.030Z,355
2017-04-10T13:07:19.576Z,300
2017-04-10T13:08:28.168Z,280
2017-04-10T13:09:37.410Z,285
2017-04-10T13:10:46.996Z,320
2017-04-10T13:11:55.902Z,300
2017-04-10T13:13:05.134Z,305
2017-04-10T13:14:13.730Z,310
2017-04-10T13:15:22.973Z,290
2017-04-10T13:16:31.890Z,240
2017-04-10T13:17:41.123Z,185
2017-04-10T13:18:50.345Z,155
2017-04-10T13:19:59.570Z,210
2017-04-10T13:21:08.805Z,220
2017-04-10T13:22:17.715Z,280
2017-04-10T13:23:26.626Z,335
2017-04-10T13:24:35.859Z,340
2017-04-10T13:25:45.419Z,290
2017-04-10T13:26:54.694Z,265
2017-04-10T13:28:03.289Z,250
2017-04-10T13:29:12.201Z,215
2017-04-10T13:30:21.108Z,200
2017-04-10T13:31:30.336Z,180
2017-04-10T13:32:39.565Z,200
2017-04-10T13:33:48.823Z,200
2017-04-10T13:34:57.749Z,205
2017-04-10T13:36:06.973Z,215
2017-04-10T13:37:16.208Z,230
2017-04-10T13:38:25.442Z,270
2017-04-10T13:39:34.355Z,290
2017-04-10T13:40:43.842Z,285
2017-04-10T13:41:52.751Z,275
2017-04-10T13:43:01.351Z,240
2017-04-10T13:44:10.920Z,200
2017-04-10T13:45:19.828Z,140
2017-04-10T13:46:29.383Z,135
2017-04-10T13:47:38.610Z,140
2017-04-10T13:48:47.523Z,190
2017-04-10T13:49:57.069Z,190
2017-04-10T13:51:06.617Z,160
2017-04-10T13:52:15.215Z,160
2017-04-10T13:53:25.086Z,215
2017-04-10T13:54:33.996Z,240
2017-04-10T13:55:42.916Z,300
2017-04-10T13:56:51.864Z,295
2017-04-10T13:58:01.097Z,305
2017-04-10T13:59:10.332Z,300
2017-04-10T14:00:19.240Z,305
2017-04-10T14:01:28.478Z,305
2017-04-10T14:02:37.401Z,275
2017-04-10T14:03:46.973Z,255
2017-04-10T14:04:56.200Z,220
2017-04-10T14:06:05.123Z,250
2017-04-10T14:07:14.037Z,240
2017-04-10T14:08:22.628Z,195
2017-04-10T14:09:31.861Z,180
2017-04-10T14:10:41.100Z,180
2017-04-10T14:11:50.324Z,180
2017-04-10T14:13:00.429Z,175
2017-04-10T14:14:09.095Z,155
2017-04-10T14:15:18.334Z,205
2017-04-10T14:16:27.251Z,230
2017-04-10T14:17:36.506Z,285
2017-04-10T14:18:45.094Z,355
2017-04-10T14:19:54.011Z,350
2017-04-10T14:21:03.379Z,320
2017-04-10T14:22:13.162Z,310
2017-04-10T14:23:22.656Z,260
2017-04-10T14:24:32.008Z,270
2017-04-10T14:25:41.612Z,265
2017-04-10T14:26:50.840Z,225
2017-04-10T14:28:00.071Z,190
2017-04-10T14:29:09.579Z,180
2017-04-10T14:30:19.264Z,165
2017-04-10T14:31:28.864Z,145
2017-04-10T14:32:38.169Z,135
2017-04-10T14:33:47.734Z,135
2017-04-10T14:34:57.280Z,145
2017-04-10T14:36:05.884Z,140
2017-04-10T14:37:14.806Z,145
2017-04-10T14:38:24.048Z,145
2017-04-10T14:39:33.279Z,165
2017-04-10T14:40:42.517Z,185
2017-04-10T14:41:51.814Z,205
2017-04-10T14:43:00.756Z,185
2017-04-10T14:44:09.973Z,175
2017-04-10T14:45:19.542Z,165
2017-04-10T14:46:28.325Z,165
2017-04-10T14:47:37.571Z,180
2017-04-10T14:48:46.823Z,190
2017-04-10T14:49:55.458Z,210
2017-04-10T14:51:04.379Z,275
2017-04-10T14:52:13.167Z,305
2017-04-10T14:53:22.458Z,295
2017-04-10T14:54:31.460Z,300
2017-04-10T14:55:40.695Z,300
2017-04-10T14:56:50.337Z,290
2017-04-10T14:57:59.923Z,275
2017-04-10T14:59:09.161Z,220
2017-04-10T15:00:18.070Z,210
2017-04-10T15:01:26.669Z,220
2017-04-10T15:02:35.922Z,245
2017-04-10T15:03:44.835Z,235
2017-04-10T15:04:53.749Z,195
2017-04-10T15:06:02.347Z,165
2017-04-10T15:07:10.949Z,205
2017-04-10T15:08:19.865Z,215
2017-04-10T15:09:29.138Z,240
2017-04-10T15:10:38.056Z,230
2017-04-10T15:11:46.974Z,235
2017-04-10T15:12:56.527Z,240
2017-04-10T15:14:05.757Z,215
2017-04-10T15:15:15.324Z,205
2017-04-10T15:16:24.000Z,225
2017-04-10T15:17:32.951Z,245
2017-04-10T15:18:41.558Z,265
2017-04-10T15:19:50.826Z,270
2017-04-10T15:20:59.731Z,280
2017-04-10T15:22:09.222Z,270
2017-04-10T15:23:17.812Z,295
2017-04-10T15:24:27.356Z,290
2017-04-10T15:25:36.279Z,290
2017-04-10T15:26:45.507Z,280
2017-04-10T15:27:54.752Z,270
2017-04-10T15:29:03.662Z,260
2017-04-10T15:30:12.254Z,265
2017-04-10T15:31:21.167Z,250
2017-04-10T15:32:30.083Z,225
2017-04-10T15:33:38.675Z,205
2017-04-10T15:34:47.591Z,215
2017-04-10T15:35:56.502Z,235
2017-04-10T15:37:05.096Z,235
2017-04-10T15:38:14.467Z,225
2017-04-10T15:39:23.064Z,225
2017-04-10T15:40:32.011Z,230
2017-04-10T15:41:41.562Z,230
2017-04-10T15:42:50.794Z,215
2017-04-10T15:43:59.720Z,255
2017-04-10T15:45:08.638Z,250
2017-04-10T15:46:17.227Z,220
2017-04-10T15:47:26.149Z,245
2017-04-10T15:48:35.392Z,230
2017-04-10T15:49:44.946Z,230
2017-04-10T15:50:54.171Z,190
2017-04-10T15:52:03.110Z,175
2017-04-10T15:53:12.662Z,160
2017-04-10T15:54:21.614Z,160
2017-04-10T15:55:30.562Z,175
2017-04-10T15:56:39.474Z,190
2017-04-10T15:57:48.066Z,190
2017-04-10T15:58:56.671Z,170
2017-04-10T16:00:06.250Z,150
2017-04-10T16:01:15.837Z,155
2017-04-10T16:02:24.430Z,140
2017-04-10T16:03:33.659Z,140
2017-04-10T16:04:42.573Z,125
2017-04-10T16:05:51.493Z,130
2017-04-10T16:07:01.042Z,180
2017-04-10T16:08:10.024Z,220
2017-04-10T16:09:20.753Z,230
2017-04-10T16:10:29.730Z,220
2017-04-10T16:11:39.279Z,200
2017-04-10T16:12:48.194Z,195
2017-04-10T16:13:57.572Z,200
2017-04-10T16:15:06.847Z,195
2017-04-10T16:16:16.253Z,185
2017-04-10T16:17:25.356Z,185
2017-04-10T16:18:34.424Z,205
2017-04-10T16:19:43.936Z,210
2017-04-10T16:20:52.968Z,190
2017-04-10T16:22:02.197Z,185
2017-04-10T16:23:10.836Z,190
2017-04-10T16:24:20.388Z,185
2017-04-10T16:25:29.467Z,170
2017-04-10T16:26:38.750Z,155
2017-04-10T16:27:47.707Z,160
2017-04-10T16:28:56.346Z,160
2017-04-10T16:30:05.939Z,160
2017-04-10T16:31:15.180Z,155
2017-04-10T16:32:24.100Z,145
2017-04-10T16:33:33.255Z,135
2017-04-10T16:34:42.555Z,130
2017-04-10T16:35:51.964Z,130
2017-04-10T16:37:01.250Z,150
2017-04-10T16:38:10.414Z,165
2017-04-10T16:39:19.388Z,175
2017-04-10T16:40:27.992Z,180
2017-04-10T16:41:36.607Z,160
2017-04-10T16:42:45.720Z,155
2017-04-10T16:43:55.402Z,150
2017-04-10T16:45:04.030Z,155
2017-04-10T16:46:12.695Z,155
2017-04-10T16:47:21.606Z,145
2017-04-10T16:48:30.922Z,135
2017-04-10T16:49:39.839Z,130
2017-04-10T16:50:48.786Z,125
2017-04-10T16:51:58.107Z,125
2017-04-10T16:53:07.051Z,115
2017-04-10T16:54:16.280Z,110
2017-04-10T16:55:25.445Z,110
2017-04-10T16:56:34.407Z,115
2017-04-10T16:57:43.325Z,115
2017-04-10T16:58:53.197Z,115
2017-04-10T17:00:01.935Z,115
2017-04-10T17:01:11.529Z,110
2017-04-10T17:02:20.179Z,110
2017-04-10T17:03:29.423Z,110
2017-04-10T17:04:39.083Z,110
2017-04-10T17:05:48.628Z,110
2017-04-10T17:06:57.867Z,105
2017-04-10T17:08:06.779Z,100
2017-04-10T17:09:15.948Z,95
2017-04-10T17:10:24.895Z,90
2017-04-10T17:11:34.137Z,90
2017-04-10T17:12:43.680Z,85
2017-04-10T17:13:52.914Z,80
2017-04-10T17:15:02.473Z,80
2017-04-10T17:16:11.080Z,75
2017-04-10T17:17:20.012Z,75
2017-04-10T17:18:28.965Z,70
2017-04-10T17:19:37.896Z,65
2017-04-10T17:20:46.839Z,65
2017-04-10T17:21:55.752Z,60
2017-04-10T17:23:04.982Z,60
2017-04-10T17:24:15.051Z,60
2017-04-10T17:25:24.276Z,55
2017-04-10T17:26:33.828Z,55
2017-04-10T17:27:42.738Z,55
2017-04-10T17:28:52.996Z,55
2017-04-10T17:30:02.672Z,55
2017-04-10T17:31:11.632Z,55
2017-04-10T17:32:21.063Z,55
2017-04-10T17:33:30.302Z,55
2017-04-10T17:34:38.907Z,50
2017-04-10T17:35:47.623Z,45
2017-04-10T17:36:56.856Z,45
2017-04-10T17:38:06.413Z,45
2017-04-10T17:39:15.350Z,40
2017-04-10T17:40:23.999Z,35
2017-04-10T17:41:32.626Z,30
2017-04-10T17:42:41.858Z,30
2017-04-10T17:43:51.093Z,35
2017-04-10T17:45:00.677Z,35
2017-04-10T17:46:09.994Z,35
2017-04-10T17:47:19.178Z,35
2017-04-10T17:48:28.110Z,30
2017-04-10T17:49:37.085Z,30
2017-04-10T17:50:46.132Z,30
2017-04-10T17:51:55.547Z,30
2017-04-10T17:53:04.963Z,30
2017-04-10T17:54:14.919Z,30
2017-04-10T17:55:24.209Z,25
2017-04-10T17:56:33.279Z,25
2017-04-10T17:57:42.889Z,25
2017-04-10T17:58:51.568Z,25
2017-04-10T18:00:00.231Z,25
2017-04-10T18:01:08.829Z,25
2017-04-10T18:02:17.928Z,25
2017-04-10T18:03:26.535Z,20
2017-04-10T18:04:35.454Z,20
2017-04-10T18:05:44.046Z,15
2017-04-10T18:06:53.282Z,15
2017-04-10T18:08:02.206Z,15
2017-04-10T18:09:11.109Z,15
2017-04-10T18:10:20.029Z,10
2017-04-10T18:11:29.254Z,10
2017-04-10T18:12:38.472Z,10
2017-04-10T18:13:47.386Z,10
2017-04-10T18:14:55.982Z,10
2017-04-10T18:16:05.211Z,5
2017-04-10T18:17:14.440Z,5
2017-04-10T18:18:23.082Z,5
2017-04-10T18:19:32.633Z,5
2017-04-10T18:20:41.555Z,5
2017-04-10T18:21:51.101Z,5
2017-04-10T18:22:59.747Z,5
2017-04-10T18:24:08.919Z,5
2017-04-10T18:25:18.160Z,0
2017-04-10T18:26:27.394Z,0
2017-04-10T18:27:36.621Z,0
2017-04-10T18:28:45.214Z,0
2017-04-10T18:29:54.088Z,0
2017-04-10T18:31:03.018Z,0
2017-04-10T18:32:12.325Z,0
2017-04-10T18:33:21.555Z,0
2017-04-10T18:34:30.411Z,0
2017-04-10T18:35:39.635Z,0
2017-04-10T18:36:48.563Z,0
2017-04-10T18:37:57.792Z,0
2017-04-10T18:39:07.151Z,0
2017-04-10T18:40:16.080Z,0
2017-04-10T18:41:24.996Z,0
2017-04-10T18:42:33.907Z,0
2017-04-10T18:43:42.819Z,0
2017-04-10T18:44:52.195Z,0
2017-04-10T18:46:01.107Z,0
2017-04-10T18:47:10.024Z,0
2017-04-10T18:48:18.943Z,0
2017-04-10T18:49:27.957Z,0
2017-04-10T18:50:36.610Z,0
2017-04-10T18:51:45.836Z,0
2017-04-10T18:52:54.541Z,0
2017-04-10T18:54:03.517Z,0
2017-04-10T18:55:12.488Z,0
2017-04-10T18:56:22.649Z,0
2017-04-10T18:57:31.236Z,0
2017-04-10T18:58:40.247Z,0
2017-04-10T18:59:49.155Z,0
2017-04-10T19:00:57.802Z,0
2017-04-10T19:02:06.724Z,0
2017-04-10T19:03:15.642Z,0
2017-04-10T19:04:24.234Z,0
2017-04-10T19:05:33.786Z,0
2017-04-10T19:06:42.896Z,0
2017-04-10T19:07:51.876Z,0
2017-04-10T19:09:00.794Z,0
2017-04-10T19:10:10.359Z,0
2017-04-10T19:11:19.421Z,0
2017-04-10T19:12:28.705Z,0
2017-04-10T19:13:38.255Z,0
2017-04-10T19:14:46.864Z,0
2017-04-10T19:15:56.098Z,0
2017-04-10T19:17:04.691Z,0
2017-04-10T19:18:13.885Z,0
2017-04-10T19:19:22.852Z,0
2017-04-10T19:20:31.800Z,0
2017-04-10T19:21:40.913Z,0
2017-04-10T19:22:50.138Z,0
2017-04-10T19:23:59.405Z,0
2017-04-10T19:25:08.787Z,0
2017-04-10T19:26:17.702Z,0
2017-04-10T19:27:26.974Z,0
2017-04-10T19:28:35.581Z,0
2017-04-10T19:29:45.496Z,0
2017-04-10T19:30:54.729Z,0
2017-04-10T19:32:03.970Z,0
2017-04-10T19:33:13.230Z,0
2017-04-10T19:34:22.794Z,0
2017-04-10T19:35:32.028Z,0
2017-04-10T19:36:40.937Z,0
2017-04-10T19:37:49.972Z,0
2017-04-10T19:38:59.860Z,0
2017-04-10T19:40:09.086Z,0
2017-04-10T19:41:18.320Z,0
2017-04-10T19:42:28.106Z,0
2017-04-10T19:43:37.547Z,0
2017-04-10T19:44:46.518Z,0
2017-04-10T19:45:55.765Z,0
2017-04-10T19:47:05.086Z,0
2017-04-10T19:48:13.771Z,0
2017-04-10T19:49:22.372Z,0
2017-04-10T19:50:31.368Z,0
2017-04-10T19:51:40.319Z,0
2017-04-10T19:52:49.284Z,0
2017-04-10T19:53:58.569Z,0
2017-04-10T19:55:07.609Z,0
2017-04-10T19:56:16.611Z,0
2017-04-10T19:57:26.938Z,0
2017-04-10T19:58:35.841Z,0
2017-04-10T19:59:44.467Z,0
2017-04-10T20:00:53.716Z,0
2017-04-10T20:02:03.324Z,0
2017-04-10T20:03:12.588Z,0
2017-04-10T20:04:22.342Z,0
2017-04-10T20:05:31.527Z,0
2017-04-10T20:06:40.879Z,0
2017-04-10T20:07:49.854Z,0
2017-04-10T20:08:58.530Z,0
2017-04-10T20:10:07.452Z,0
2017-04-10T20:11:16.040Z,0
2017-04-10T20:12:25.264Z,0
2017-04-10T20:13:34.806Z,0
2017-04-10T20:14:43.719Z,0
2017-04-10T20:15:52.941Z,0
2017-04-10T20:17:01.783Z,0
2017-04-10T20:18:10.686Z,0
2017-04-10T20:19:19.319Z,0
2017-04-10T20:20:27.915Z,0
2017-04-10T20:21:36.817Z,0
2017-04-10T20:22:45.723Z,0
2017-04-10T20:23:55.274Z,0
2017-04-10T20:25:03.866Z,0
2017-04-10T20:26:13.139Z,0
2017-04-10T20:27:22.609Z,0
2017-04-10T20:28:31.196Z,0
2017-04-10T20:29:40.746Z,0
2017-04-10T20:30:49.975Z,0
2017-04-10T20:31:58.571Z,0
2017-04-10T20:33:07.476Z,0
2017-04-10T20:34:17.027Z,0
2017-04-10T20:35:25.937Z,0
2017-04-10T20:36:34.542Z,0
2017-04-10T20:37:44.339Z,0
2017-04-10T20:38:53.240Z,0
2017-04-10T20:40:02.168Z,0
2017-04-10T20:41:11.708Z,0
2017-04-10T20:42:20.616Z,0
2017-04-10T20:43:29.205Z,0
2017-04-10T20:44:38.119Z,0
2017-04-10T20:45:47.027Z,0
2017-04-10T20:46:55.927Z,0
2017-04-10T20:48:04.835Z,0
2017-04-10T20:49:13.743Z,0
2017-04-10T20:50:22.982Z,0
2017-04-10T20:51:31.575Z,0
2017-04-10T20:52:40.482Z,0
2017-04-10T20:53:49.713Z,0
2017-04-10T20:54:59.249Z,0
2017-04-10T20:56:08.492Z,0
2017-04-10T20:57:17.398Z,0
2017-04-10T20:58:26.305Z,0
2017-04-10T20:59:35.528Z,0
2017-04-10T21:00:44.433Z,0
2017-04-10T21:01:53.649Z,0
2017-04-10T21:03:02.286Z,0
2017-04-10T21:04:11.502Z,0
2017-04-10T21:05:20.806Z,0
2017-04-10T21:06:30.119Z,0
2017-04-10T21:07:39.176Z,0
2017-04-10T21:08:48.701Z,0
2017-04-10T21:09:58.619Z,0
2017-04-10T21:11:07.841Z,0
2017-04-10T21:12:17.411Z,0
2017-04-10T21:13:25.993Z,0
2017-04-10T21:14:34.585Z,0
2017-04-10T21:15:43.813Z,0
2017-04-10T21:16:52.402Z,0
2017-04-10T21:18:01.936Z,0
2017-04-10T21:19:11.164Z,0
2017-04-10T21:20:20.085Z,0
2017-04-10T21:21:28.667Z,0
2017-04-10T21:22:37.889Z,0
2017-04-10T21:23:46.474Z,0
2017-04-10T21:24:55.378Z,0
2017-04-10T21:26:04.283Z,0
2017-04-10T21:27:13.503Z,0
2017-04-10T21:28:22.410Z,0
2017-04-10T21:29:31.317Z,0
2017-04-10T21:30:40.550Z,0
2017-04-10T21:31:50.093Z,0
2017-04-10T21:32:58.994Z,0
2017-04-10T21:34:08.212Z,0
2017-04-10T21:35:16.795Z,0
2017-04-10T21:36:26.018Z,0
2017-04-10T21:37:34.855Z,0
2017-04-10T21:38:43.754Z,0
2017-04-10T21:39:53.620Z,0
2017-04-10T21:41:03.164Z,0
2017-04-10T21:42:11.755Z,0
2017-04-10T21:43:20.654Z,0
2017-04-10T21:44:29.251Z,0
2017-04-10T21:45:38.476Z,0
2017-04-10T21:46:47.377Z,0
2017-04-10T21:47:56.590Z,0
2017-04-10T21:49:05.500Z,0
2017-04-10T21:50:15.039Z,0
2017-04-10T21:51:23.944Z,0
2017-04-10T21:52:32.858Z,0
2017-04-10T21:53:42.078Z,0
2017-04-10T21:54:51.342Z,0
2017-04-10T21:56:00.243Z,0
2017-04-10T21:57:08.827Z,0
2017-04-10T21:58:18.051Z,0
2017-04-10T21:59:26.957Z,0
2017-04-10T22:00:36.170Z,0
2017-04-10T22:01:45.386Z,0
2017-04-10T22:02:53.976Z,0
2017-04-10T22:04:02.884Z,0
2017-04-10T22:05:11.791Z,0
2017-04-10T22:06:20.378Z,0
2017-04-10T22:07:29.599Z,0
2017-04-10T22:08:38.823Z,0
2017-04-10T22:09:47.407Z,0
2017-04-10T22:10:56.633Z,0
2017-04-10T22:12:05.857Z,0
2017-04-10T22:13:15.393Z,0
2017-04-10T22:14:24.940Z,0
2017-04-10T22:15:34.165Z,0
2017-04-10T22:16:43.705Z,0
2017-04-10T22:17:52.923Z,0
2017-04-10T22:19:01.506Z,0
2017-04-10T22:20:10.422Z,0
2017-04-10T22:21:19.015Z,0
2017-04-10T22:22:28.241Z,0
2017-04-10T22:23:36.825Z,0
2017-04-10T22:24:45.729Z,0
2017-04-10T22:25:55.266Z,0
2017-04-10T22:27:04.175Z,0
2017-04-10T22:28:13.082Z,0
2017-04-10T22:29:21.985Z,0
2017-04-10T22:30:30.904Z,0
2017-04-10T22:31:40.758Z,0
2017-04-10T22:32:49.977Z,0
2017-04-10T22:33:59.210Z,0
2017-04-10T22:35:08.116Z,0
2017-04-10T22:36:17.032Z,0
2017-04-10T22:37:26.573Z,0
2017-04-10T22:38:35.479Z,0
2017-04-10T22:39:44.379Z,0
2017-04-10T22:40:52.964Z,0
2017-04-10T22:42:02.185Z,0
2017-04-10T22:43:11.425Z,0
2017-04-10T22:44:20.657Z,0
2017-04-10T22:45:29.236Z,0
2017-04-10T22:46:38.458Z,0
2017-04-10T22:47:47.043Z,0
2017-04-10T22:48:55.632Z,0
2017-04-10T22:50:04.531Z,0
2017-04-10T22:51:14.074Z,0
2017-04-10T22:52:22.980Z,0
2017-04-10T22:53:31.881Z,0
2017-04-10T22:54:40.779Z,0
2017-04-10T22:55:49.682Z,0
2017-04-10T22:56:59.218Z,0
2017-04-10T22:58:08.759Z,0
2017-04-10T22:59:17.661Z,0
2017-04-10T23:00:26.240Z,0
2017-04-10T23:01:35.141Z,0
2017-04-10T23:02:44.044Z,0
2017-04-10T23:03:53.197Z,0
2017-04-10T23:05:02.420Z,0
2017-04-10T23:06:11.641Z,0
2017-04-10T23:07:20.861Z,0
2017-04-10T23:08:30.080Z,0
2017-04-10T23:09:38.984Z,0
2017-04-10T23:10:47.889Z,0
2017-04-10T23:11:57.107Z,0
2017-04-10T23:13:06.021Z,0
2017-04-10T23:14:15.174Z,0
2017-04-10T23:15:24.077Z,0
2017-04-10T23:16:32.981Z,0
2017-04-10T23:17:42.200Z,0
2017-04-10T23:18:51.103Z,0
2017-04-10T23:20:00.005Z,0
2017-04-10T23:21:09.247Z,0
2017-04-10T23:22:18.154Z,0
2017-04-10T23:23:27.378Z,0
2017-04-10T23:24:36.539Z,0
2017-04-10T23:25:45.445Z,0
2017-04-10T23:26:54.668Z,0
2017-04-10T23:28:03.273Z,0
2017-04-10T23:29:12.493Z,0
2017-04-10T23:30:21.710Z,0
2017-04-10T23:31:30.936Z,0
2017-04-10T23:32:40.163Z,0
2017-04-10T23:33:49.704Z,0
2017-04-10T23:34:58.605Z,0
2017-04-10T23:36:07.187Z,0
2017-04-10T23:37:16.080Z,0
2017-04-10T23:38:25.623Z,0
2017-04-10T23:39:34.532Z,0
2017-04-10T23:40:43.116Z,0
2017-04-10T23:41:52.653Z,0
2017-04-10T23:43:01.247Z,0
2017-04-10T23:44:10.470Z,0
2017-04-10T23:45:19.691Z,0
2017-04-10T23:46:28.272Z,0
2017-04-10T23:47:37.181Z,0
2017-04-10T23:48:46.093Z,0
2017-04-10T23:49:55.321Z,0
2017-04-10T23:51:04.790Z,0
2017-04-10T23:52:13.732Z,0
2017-04-10T23:53:22.962Z,0
2017-04-10T23:54:32.180Z,0
2017-04-10T23:55:41.079Z,0
2017-04-10T23:56:49.987Z,0
2017-04-10T23:57:59.524Z,0
2017-04-10T23:59:08.418Z,0
